Home > Products > Valid Products > MTR

000
SAUS45 KFGZ 011958
MTRFLG
METAR KFLG 011957Z 10SM BKN075 17/00 A3008 RMK AO2 SLP110 T01670000





000
SAUS45 KFGZ 011858
MTRFLG
METAR KFLG 011857Z 27008G17KT 10SM SCT065 BKN080 17/00 A3009 RMK AO2
SLP117 T01670000





000
SAUS45 KFGZ 011758
MTRFLG
METAR KFLG 011757Z VRB05KT 10SM FEW055 16/01 A3010 RMK AO2 SLP121
T01610006 10161 20017 50004





000
SAUS45 KFGZ 011658
MTRFLG
METAR KFLG 011657Z 32005KT 10SM CLR 14/00 A3011 RMK AO2 SLP124
T01440000





000
SAUS45 KFGZ 011558
MTRFLG
METAR KFLG 011557Z 23011KT 10SM CLR 13/02 A3009 RMK AO2 SLP115
T01330017





000
SAUS45 KFGZ 011458
MTRFLG
METAR KFLG 011457Z 25003KT 10SM CLR 11/02 A3009 RMK AO2 SLP119
T01110022 53010





000
SAUS45 KFGZ 011358
MTRFLG
METAR KFLG 011357Z 24003KT 10SM CLR 04/01 A3007 RMK AO2 SLP126
T00390011





000
SAUS45 KFGZ 011258
MTRFLG
METAR KFLG 011257Z AUTO 00000KT 10SM CLR 02/00 A3006 RMK AO2 SLP118
T00220000 TSNO





000
SAUS45 KFGZ 011158
MTRFLG
METAR KFLG 011157Z AUTO 00000KT 10SM CLR 03/01 A3005 RMK AO2 SLP108
T00280006 10061 20022 55001 TSNO





000
SAUS45 KFGZ 011058
MTRFLG
METAR KFLG 011057Z AUTO 00000KT 10SM CLR 03/01 A3004 RMK AO2 SLP101
T00280006 TSNO





000
SAUS45 KFGZ 010958
MTRFLG
METAR KFLG 010957Z AUTO 00000KT 10SM CLR 04/01 A3004 RMK AO2 SLP096
T00440011 TSNO





000
SAUS45 KFGZ 010858
MTRFLG
METAR KFLG 010857Z AUTO VRB03KT 10SM CLR 05/02 A3005 RMK AO2 SLP101
T00500017 56004 TSNO





000
SAUS45 KFGZ 010758
MTRFLG
METAR KFLG 010757Z AUTO 22003KT 10SM CLR 06/02 A3005 RMK AO2 SLP099
T00610017 TSNO





000
SAUS45 KFGZ 010658
MTRFLG
METAR KFLG 010657Z AUTO 28003KT 10SM CLR 05/02 A3006 RMK AO2 SLP108
T00500017 401890000 TSNO





000
SAUS45 KFGZ 010558
MTRFLG
METAR KFLG 010557Z AUTO 00000KT 10SM CLR 06/02 A3007 RMK AO2 SLP109
T00610022 10167 20061 58001 TSNO





000
SAUS45 KFGZ 010458
MTRFLG
METAR KFLG 010457Z AUTO 00000KT 10SM CLR 08/02 A3008 RMK AO2 SLP113
T00780022 TSNO





000
SAUS45 KFGZ 010358
MTRFLG
METAR KFLG 010357Z AUTO 20005KT 10SM CLR 09/02 A3008 RMK AO2 SLP113
T00940022 TSNO





000
SAUS45 KFGZ 010258
MTRFLG
METAR KFLG 010257Z 22006KT 10SM CLR 10/03 A3007 RMK AO2 SLP121
T01000028 53004





000
SAUS45 KFGZ 010158
MTRFLG
METAR KFLG 010157Z 25006KT 10SM CLR 13/02 A3006 RMK AO2 SLP127
T01280017





000
SAUS45 KFGZ 010058
MTRFLG
METAR KFLG 010057Z 21008KT 10SM CLR 15/02 A3006 RMK AO2 SLP123
T01500022





000
SAUS45 KFGZ 302358
MTRFLG
METAR KFLG 302357Z 20013KT 10SM CLR 17/02 A3005 RMK AO2 SLP116
T01720022 10189 20156 55006





000
SAUS45 KFGZ 302258
MTRFLG
METAR KFLG 302257Z 23012KT 10SM CLR 18/03 A3005 RMK AO2 SLP110
T01830028





000
SAUS45 KFGZ 302158
MTRFLG
METAR KFLG 302157Z 23009KT 10SM CLR 18/02 A3007 RMK AO2 SLP114
T01830017





000
SAUS45 KFGZ 302058
MTRFLG
METAR KFLG 302057Z 20011G15KT 10SM CLR 18/03 A3008 RMK AO2 SLP118
T01780028 58012





000
SAUS45 KFGZ 301958
MTRFLG
METAR KFLG 301957Z VRB05KT 10SM CLR 18/01 A3010 RMK AO2 SLP123
T01830011





000
SAUS45 KFGZ 301858
MTRFLG
METAR KFLG 301857Z 27007KT 10SM CLR 17/01 A3011 RMK AO2 SLP128
T01670006





000
SAUS45 KFGZ 301758
MTRFLG
METAR KFLG 301757Z 21008KT 10SM CLR 16/01 A3012 RMK AO2 SLP133
T01560011 10161 20000 58004





000
SAUS45 KFGZ 301658
MTRFLG
METAR KFLG 301657Z 21005KT 10SM CLR 14/02 A3013 RMK AO2 SLP137
T01440017





000
SAUS45 KFGZ 301558
MTRFLG
METAR KFLG 301557Z 00000KT 10SM CLR 13/03 A3013 RMK AO2 SLP141
T01280028





000
SAUS45 KFGZ 301458
MTRFLG
METAR KFLG 301457Z 00000KT 10SM CLR 07/03 A3013 RMK AO2 SLP144
T00720033 53004





000
SAUS45 KFGZ 301358
MTRFLG
METAR KFLG 301357Z 00000KT 10SM CLR 01/M01 A3013 RMK AO2 SLP158
T00111006





000
SAUS45 KFGZ 301258
MTRFLG
METAR KFLG 301257Z 00000KT 10SM CLR 00/M01 A3012 RMK AO2 SLP152
T00001011





000
SAUS45 KFGZ 301158
MTRFLG
METAR KFLG 301157Z AUTO 00000KT 10SM CLR 01/M01 A3012 RMK AO2 SLP144
T00061011 10050 20006 56008 TSNO





000
SAUS45 KFGZ 301058
MTRFLG
METAR KFLG 301057Z AUTO 00000KT 10SM CLR 01/M01 A3013 RMK AO2 SLP142
T00111006 TSNO





000
SAUS45 KFGZ 300958
MTRFLG
METAR KFLG 300957Z AUTO 00000KT 10SM CLR 02/M01 A3013 RMK AO2 SLP143
T00171006 TSNO





000
SAUS45 KFGZ 300858
MTRFLG
METAR KFLG 300857Z AUTO 00000KT 10SM CLR 02/M01 A3015 RMK AO2 SLP149
T00171006 55000 TSNO





000
SAUS45 KFGZ 300759
MTRFLG
METAR KFLG 300757Z AUTO 00000KT 10SM CLR 02/00 A3014 RMK AO2 SLP147
T00220000 TSNO





000
SAUS45 KFGZ 300658
MTRFLG
METAR KFLG 300657Z AUTO 00000KT 10SM CLR 04/01 A3015 RMK AO2 SLP146
T00390006 401610000 TSNO





000
SAUS45 KFGZ 300559
MTRFLG
METAR KFLG 300557Z AUTO 35003KT 10SM CLR 04/01 A3015 RMK AO2 SLP146
T00440006 10150 20033 50003 TSNO





000
SAUS45 KFGZ 300458
MTRFLG
METAR KFLG 300457Z AUTO 00000KT 10SM CLR 05/01 A3015 RMK AO2 SLP150
T00500006 TSNO





000
SAUS45 KFGZ 300358
MTRFLG
METAR KFLG 300357Z 00000KT 10SM CLR 06/01 A3015 RMK AO2 SLP155
T00610011





000
SAUS45 KFGZ 300258
MTRFLG
METAR KFLG 300257Z 00000KT 10SM CLR 10/M01 A3014 RMK AO2 SLP149
T01001006 51005





000
SAUS45 KFGZ 300158
MTRFLG
METAR KFLG 300157Z 25005KT 10SM CLR 10/01 A3013 RMK AO2 SLP158
T01000006





000
SAUS45 KFGZ 300058
MTRFLG
METAR KFLG 300057Z 24007KT 10SM CLR 13/M01 A3013 RMK AO2 SLP155
T01331006





000
SAUS45 KFGZ 292358
MTRFLG
METAR KFLG 292357Z 21010KT 10SM CLR 15/M01 A3012 RMK AO2 SLP142
T01501011 10161 20133 53001





000
SAUS45 KFGZ 292258
MTRFLG
METAR KFLG 292257Z VRB05KT 10SM CLR 16/M01 A3011 RMK AO2 SLP135
T01611011





000
SAUS45 KFGZ 292158
MTRFLG
METAR KFLG 292157Z 20010G15KT 10SM CLR 16/M01 A3011 RMK AO2 SLP137
T01561011





000
SAUS45 KFGZ 292058
MTRFLG
METAR KFLG 292057Z 24010G16KT 10SM CLR 16/M01 A3012 RMK AO2 SLP132
T01611011 58006





000
SAUS45 KFGZ 291958
MTRFLG
METAR KFLG 291957Z 28007KT 10SM CLR 16/M01 A3013 RMK AO2 SLP139
T01561011





000
SAUS45 KFGZ 291858
MTRFLG
METAR KFLG 291857Z 26008KT 230V300 10SM CLR 14/M02 A3014 RMK AO2
SLP144 T01441017





000
SAUS45 KFGZ 291759
MTRFLG
METAR KFLG 291757Z 23010KT 10SM CLR 14/M04 A3014 RMK AO2 SLP146
T01391044 10139 20000 51004





000
SAUS45 KFGZ 291658
MTRFLG
METAR KFLG 291657Z 23012G18KT 10SM CLR 12/M02 A3013 RMK AO2 SLP147
T01221022





000
SAUS45 KFGZ 291558
MTRFLG
METAR KFLG 291557Z 23007KT 10SM BKN090 09/02 A3014 RMK AO2 SLP150
T00940022





000
SAUS45 KFGZ 291458
MTRFLG
METAR KFLG 291457Z 00000KT 10SM OVC110 07/02 A3013 RMK AO2 SLP147
T00670017 53009





000
SAUS45 KFGZ 291358
MTRFLG
METAR KFLG 291357Z 00000KT 10SM CLR 02/01 A3011 RMK AO2 SLP147
T00220011





000
SAUS45 KFGZ 291258
MTRFLG
METAR KFLG 291257Z AUTO 00000KT 10SM CLR 00/M01 A3010 RMK AO2 SLP146
T00001011 TSNO $





000
SAUS45 KFGZ 291158
MTRFLG
METAR KFLG 291157Z AUTO 00000KT 10SM CLR 01/M01 A3009 RMK AO2 SLP134
70004 T00111006 10039 20006 55002 TSNO $





000
SAUS45 KFGZ 291058
MTRFLG
METAR KFLG 291057Z AUTO 00000KT 10SM CLR 02/00 A3008 RMK AO2 SLP129
T00170000 TSNO $





000
SAUS45 KFGZ 290958
MTRFLG
METAR KFLG 290957Z AUTO 00000KT 10SM CLR 02/00 A3009 RMK AO2 SLP132
T00170000 TSNO $





000
SAUS45 KFGZ 290858
MTRFLG
METAR KFLG 290857Z AUTO 00000KT 10SM CLR 03/01 A3010 RMK AO2 SLP129
T00330011 58002 TSNO $





000
SAUS45 KFGZ 290758
MTRFLG
METAR KFLG 290757Z AUTO 00000KT 10SM CLR 03/01 A3010 RMK AO2 SLP133
T00280011 TSNO $





000
SAUS45 KFGZ 290658
MTRFLG
METAR KFLG 290657Z AUTO 00000KT 10SM CLR 04/01 A3011 RMK AO2 SLP135
T00390011 401560028 TSNO $





000
SAUS45 KFGZ 290558
MTRFLG
METAR KFLG 290557Z AUTO 00000KT 10SM CLR 03/01 A3011 RMK AO2 SLP140
T00330011 10139 20033 51002 TSNO $





000
SAUS45 KFGZ 290459
MTRFLG
METAR KFLG 290457Z AUTO 00000KT 10SM CLR 04/01 A3011 RMK AO2 SLP140
T00440011 TSNO $





000
SAUS45 KFGZ 290358
MTRFLG
METAR KFLG 290357Z 00000KT 10SM CLR 06/02 A3011 RMK AO2 SLP138
T00610017 $





000
SAUS45 KFGZ 290258
MTRFLG
METAR KFLG 290257Z 23007KT 10SM CLR 08/02 A3010 RMK AO2 SLP132
T00830017 50005 $





000
SAUS45 KFGZ 290159
MTRFLG
METAR KFLG 290157Z 24009G15KT 10SM CLR 11/01 A3010 RMK AO2 SLP133
T01060011 $





000
SAUS45 KFGZ 290058
MTRFLG
METAR KFLG 290057Z 21009KT 10SM CLR 12/01 A3010 RMK AO2 SLP128
T01220011 $





000
SAUS45 KFGZ 282358
MTRFLG
METAR KFLG 282357Z 21013G25KT 10SM CLR 14/M02 A3008 RMK AO2 PK WND
22031/2301 SLP117 60000 T01391022 10156 20117 53002 $





000
SAUS45 KFGZ 282258
MTRFLG
METAR KFLG 282257Z 21020G31KT 10SM FEW060 14/M03 A3007 RMK AO2 PK
WND 20033/2226 SLP114 T01441028 $





000
SAUS45 KFGZ 282158
MTRFLG
METAR KFLG 282157Z 21021G30KT 10SM FEW060 15/M02 A3008 RMK AO2 PK
WND 23032/2139 SLP112 T01501017 $





000
SAUS45 KFGZ 282058
MTRFLG
METAR KFLG 282057Z 23025G33KT 10SM FEW039 FEW048 SCT060 16/02 A3008
RMK AO2 PK WND 22033/2057 SLP108 60000 T01560022 58006 $





    US Dept of Commerce
    National Oceanic and Atmospheric Administration
    National Weather Service
    1325 East West Highway
    Silver Spring, MD 20910
    Page Author: NWS Internet Services Team
Disclaimer
Information Quality
Credits
Glossary
Privacy Policy
Freedom of Information Act (FOIA)
About Us
Career Opportunities